| time (UTC) | temp F | wind direction | speed MPH | gust MPH | rain 1hr in | rain 24hr in | rain mn in | humidity % | barometer mb |
| 20260509054610 | 75 | 0 | 0.0 | 0.0 | 0.00 | 0.10 | 0.00 | 90 | 1011.0 |
| 20260509053053 | 75 | 0 | 0.0 | 1.0 | 0.00 | 0.10 | 0.00 | 91 | 1010.8 |
| 20260509051603 | 75 | 0 | 0.0 | 2.0 | 0.00 | 0.10 | 0.00 | 91 | 1011.1 |
| 20260509050056 | 74 | 0 | 0.0 | 0.0 | 0.00 | 0.10 | 0.00 | 90 | 1011.1 |
| 20260509044552 | 74 | 0 | 0.0 | 0.0 | 0.00 | 0.10 | 0.10 | 90 | 1011.4 |
| 20260509043100 | 74 | 0 | 0.0 | 2.0 | 0.00 | 0.10 | 0.10 | 90 | 1011.2 |
| 20260509041554 | 74 | 0 | 0.0 | 0.0 | 0.00 | 0.10 | 0.10 | 90 | 1011.0 |
| 20260509040055 | 74 | 0 | 0.0 | 3.0 | 0.00 | 0.10 | 0.10 | 90 | 1010.6 |
| 20260509034555 | 74 | 0 | 0.0 | 2.0 | 0.00 | 0.10 | 0.10 | 90 | 1010.9 |
| 20260509033056 | 74 | 0 | 0.0 | 2.0 | 0.00 | 0.10 | 0.10 | 90 | 1010.7 |
| 20260509031617 | 73 | 0 | 0.0 | 3.0 | 0.00 | 0.10 | 0.10 | 90 | 1010.6 |
| 20260509030057 | 73 | 0 | 0.0 | 0.0 | 0.00 | 0.10 | 0.10 | 90 | 1010.6 |
| 20260509024552 | 73 | 0 | 0.0 | 0.0 | 0.00 | 0.10 | 0.10 | 89 | 1010.5 |
| 20260509023056 | 73 | 0 | 0.0 | 0.0 | 0.00 | 0.10 | 0.10 | 89 | 1010.6 |
| 20260509021554 | 73 | 0 | 0.0 | 2.0 | 0.00 | 0.10 | 0.10 | 89 | 1010.6 |
| 20260509020053 | 73 | 0 | 0.0 | 2.0 | 0.00 | 0.10 | 0.10 | 89 | 1010.1 |
| 20260509014550 | 73 | 0 | 0.0 | 2.0 | 0.00 | 0.10 | 0.10 | 89 | 1010.0 |
| 20260509013049 | 73 | 0 | 0.0 | 0.0 | 0.00 | 0.10 | 0.10 | 89 | 1010.0 |
| 20260509011553 | 73 | 0 | 0.0 | 0.0 | 0.00 | 0.10 | 0.10 | 89 | 1010.1 |
| 20260509010050 | 73 | 0 | 0.0 | 2.0 | 0.00 | 0.10 | 0.10 | 89 | 1009.7 |
| 20260509004555 | 74 | 0 | 0.0 | 0.0 | 0.00 | 0.10 | 0.10 | 89 | 1009.9 |
| 20260509003055 | 74 | 0 | 0.0 | 2.0 | 0.00 | 0.10 | 0.10 | 89 | 1009.6 |
| 20260509001554 | 74 | 0 | 0.0 | 1.0 | 0.00 | 0.10 | 0.10 | 89 | 1009.7 |
| 20260509000105 | 74 | 0 | 0.0 | 0.0 | 0.00 | 0.10 | 0.10 | 89 | 1010.0 |
| 20260508234603 | 74 | 0 | 0.0 | 2.0 | 0.00 | 0.10 | 0.10 | 88 | 1010.5 |
| 20260508233058 | 74 | 0 | 0.0 | 2.0 | 0.00 | 0.10 | 0.10 | 88 | 1010.2 |
| 20260508231553 | 74 | 42 | 0.0 | 2.0 | 0.00 | 0.10 | 0.10 | 88 | 1009.9 |
| 20260508224556 | 74 | 0 | 0.0 | 2.0 | 0.00 | 0.10 | 0.10 | 89 | 1009.9 |
| 20260508223054 | 74 | 0 | 0.0 | 2.0 | 0.00 | 0.10 | 0.10 | 89 | 1010.1 |
| 20260508221558 | 73 | 0 | 0.0 | 2.0 | 0.00 | 0.10 | 0.10 | 89 | 1010.0 |
| 20260508220055 | 73 | 0 | 0.0 | 0.0 | 0.00 | 0.10 | 0.10 | 89 | 1010.2 |
| 20260508214607 | 73 | 0 | 0.0 | 1.0 | 0.00 | 0.10 | 0.10 | 89 | 1010.4 |
| 20260508213115 | 73 | 0 | 0.0 | 2.0 | 0.00 | 0.10 | 0.10 | 89 | 1010.3 |
| 20260508211558 | 72 | 0 | 0.0 | 2.0 | 0.00 | 0.10 | 0.10 | 89 | 1010.4 |
| 20260508210058 | 73 | 0 | 0.0 | 3.0 | 0.00 | 0.10 | 0.10 | 89 | 1010.7 |
| 20260508204617 | 72 | 0 | 0.0 | 3.0 | 0.01 | 0.10 | 0.10 | 90 | 1010.2 |
| 20260508203059 | 72 | 0 | 0.0 | 3.0 | 0.01 | 0.10 | 0.10 | 90 | 1010.9 |
| 20260508201609 | 72 | 0 | 0.0 | 1.0 | 0.01 | 0.10 | 0.10 | 91 | 1011.2 |
| 20260508200121 | 71 | 0 | 0.0 | 2.0 | 0.01 | 0.10 | 0.10 | 90 | 1011.2 |
| 20260508194554 | 70 | 0 | 0.0 | 0.0 | 0.00 | 0.09 | 0.09 | 90 | 1011.2 |
| 20260508193057 | 70 | 0 | 0.0 | 0.0 | 0.00 | 0.09 | 0.09 | 90 | 1011.5 |
| 20260508191556 | 70 | 0 | 0.0 | 2.0 | 0.01 | 0.09 | 0.09 | 90 | 1011.5 |
| 20260508184556 | 69 | 0 | 0.0 | 2.0 | 0.01 | 0.09 | 0.09 | 91 | 1011.5 |
| 20260508183104 | 68 | 0 | 0.0 | 3.0 | 0.01 | 0.09 | 0.09 | 90 | 1012.0 |
| 20260508181616 | 67 | 0 | 0.0 | 2.0 | 0.01 | 0.08 | 0.08 | 90 | 1012.5 |
| 20260508180110 | 67 | 0 | 0.0 | 2.0 | 0.01 | 0.08 | 0.08 | 90 | 1012.7 |
| 20260508174607 | 67 | 0 | 0.0 | 4.0 | 0.01 | 0.08 | 0.08 | 90 | 1012.6 |
| 20260508173059 | 67 | 0 | 0.0 | 4.0 | 0.02 | 0.08 | 0.08 | 90 | 1012.7 |
| 20260508171555 | 66 | 49 | 0.0 | 3.0 | 0.01 | 0.07 | 0.07 | 90 | 1012.9 |
| 20260508170059 | 66 | 0 | 0.0 | 4.0 | 0.01 | 0.07 | 0.07 | 90 | 1013.1 |
| 20260508164616 | 66 | 0 | 0.0 | 2.0 | 0.01 | 0.07 | 0.07 | 90 | 1013.3 |
| 20260508163054 | 66 | 0 | 0.0 | 2.0 | 0.00 | 0.06 | 0.06 | 90 | 1013.7 |
| 20260508161600 | 66 | 0 | 0.0 | 2.0 | 0.00 | 0.06 | 0.06 | 90 | 1013.8 |
| 20260508160106 | 66 | 0 | 0.0 | 0.0 | 0.01 | 0.06 | 0.06 | 90 | 1013.9 |
| 20260508154556 | 65 | 0 | 0.0 | 3.0 | 0.01 | 0.07 | 0.06 | 89 | 1013.6 |
| 20260508153059 | 65 | 63 | 0.0 | 4.0 | 0.05 | 0.07 | 0.06 | 89 | 1013.7 |
| 20260508151553 | 65 | 0 | 1.0 | 6.0 | 0.06 | 0.07 | 0.06 | 89 | 1013.5 |
| 20260508150056 | 66 | 0 | 0.0 | 5.0 | 0.05 | 0.06 | 0.05 | 88 | 1014.0 |
| 20260508144558 | 66 | 0 | 0.0 | 4.0 | 0.05 | 0.06 | 0.05 | 88 | 1014.6 |
| 20260508143054 | 67 | 0 | 0.0 | 3.0 | 0.01 | 0.02 | 0.01 | 87 | 1014.6 |
| 20260508141607 | 67 | 28 | 0.0 | 3.0 | 0.00 | 0.01 | 0.00 | 86 | 1014.2 |
| 20260508140106 | 67 | 0 | 0.0 | 2.0 | 0.00 | 0.01 | 0.00 | 86 | 1014.0 |
| 20260508134551 | 67 | 0 | 0.0 | 2.0 | 0.00 | 0.01 | 0.00 | 86 | 1013.8 |
| 20260508133054 | 67 | 0 | 0.0 | 2.0 | 0.00 | 0.01 | 0.00 | 86 | 1013.5 |
| 20260508131558 | 67 | 0 | 0.0 | 2.0 | 0.00 | 0.01 | 0.00 | 86 | 1013.6 |
| 20260508130052 | 66 | 0 | 0.0 | 2.0 | 0.00 | 0.01 | 0.00 | 86 | 1013.5 |
| 20260508124556 | 66 | 38 | 0.0 | 2.0 | 0.00 | 0.01 | 0.00 | 86 | 1013.7 |
| 20260508123055 | 66 | 0 | 0.0 | 3.0 | 0.00 | 0.01 | 0.00 | 86 | 1013.4 |
| 20260508121604 | 66 | 38 | 0.0 | 4.0 | 0.00 | 0.01 | 0.00 | 86 | 1013.6 |
| 20260508120100 | 66 | 0 | 0.0 | 3.0 | 0.00 | 0.01 | 0.00 | 86 | 1013.8 |
| 20260508114557 | 66 | 38 | 0.0 | 3.0 | 0.00 | 0.01 | 0.00 | 86 | 1013.4 |
| 20260508113059 | 66 | 0 | 0.0 | 0.0 | 0.00 | 0.01 | 0.00 | 87 | 1013.7 |
| 20260508111601 | 66 | 0 | 0.0 | 4.0 | 0.00 | 0.01 | 0.00 | 87 | 1013.9 |
| 20260508104556 | 66 | 0 | 0.0 | 2.0 | 0.00 | 0.01 | 0.00 | 87 | 1013.0 |
| 20260508103123 | 66 | 0 | 0.0 | 2.0 | 0.00 | 0.01 | 0.00 | 87 | 1013.1 |
| 20260508101604 | 66 | 0 | 0.0 | 4.0 | 0.00 | 0.01 | 0.00 | 87 | 1013.0 |
| 20260508100058 | 66 | 0 | 0.0 | 4.0 | 0.00 | 0.01 | 0.00 | 87 | 1013.2 |
| 20260508094607 | 67 | 0 | 0.0 | 1.0 | 0.00 | 0.01 | 0.00 | 87 | 1013.5 |
| 20260508093053 | 67 | 0 | 0.0 | 2.0 | 0.00 | 0.01 | 0.00 | 87 | 1013.6 |
| 20260508091551 | 67 | 0 | 0.0 | 2.0 | 0.00 | 0.01 | 0.00 | 86 | 1013.7 |
| 20260508090104 | 68 | 0 | 0.0 | 2.0 | 0.00 | 0.01 | 0.00 | 85 | 1013.6 |
| 20260508084554 | 68 | 36 | 0.0 | 4.0 | 0.00 | 0.01 | 0.00 | 85 | 1013.6 |
| 20260508083115 | 68 | 0 | 0.0 | 2.0 | 0.00 | 0.01 | 0.00 | 84 | 1013.6 |
| 20260508081555 | 69 | 0 | 1.0 | 4.0 | 0.00 | 0.01 | 0.00 | 85 | 1013.6 |
| 20260508080056 | 69 | 0 | 0.0 | 0.0 | 0.00 | 0.01 | 0.00 | 85 | 1013.5 |
| 20260508074556 | 69 | 0 | 0.0 | 0.0 | 0.00 | 0.01 | 0.00 | 85 | 1013.4 |
| 20260508073054 | 69 | 0 | 0.0 | 0.0 | 0.00 | 0.01 | 0.00 | 84 | 1013.5 |
| 20260508071556 | 69 | 0 | 0.0 | 3.0 | 0.00 | 0.01 | 0.00 | 84 | 1013.3 |
| 20260508070053 | 69 | 0 | 0.0 | 0.0 | 0.00 | 0.01 | 0.00 | 84 | 1013.2 |
| 20260508064601 | 69 | 0 | 0.0 | 1.0 | 0.00 | 0.01 | 0.00 | 84 | 1013.9 |
| 20260508063052 | 69 | 0 | 0.0 | 0.0 | 0.00 | 0.01 | 0.00 | 84 | 1014.0 |
| 20260508061556 | 69 | 0 | 0.0 | 2.0 | 0.00 | 0.01 | 0.00 | 83 | 1013.9 |